Time;durP1;ratioP1;P1;durP2;ratioP2;P2;SDS_P1;SDS_P2;PMS_P1;PMS_P2;Temp;Humidity;BMP_temperature;BMP_pressure;BME280_temperature;BME280_humidity;BME280_pressure;Samples;Min_cycle;Max_cycle;Signal;HPM_P1;HPM_P2
2022/12/20 00:02:28;;;;;;;41.67;14.82;;;;;;;;;;6250654;28;20451;-63
2022/12/20 00:05:28;;;;;;;42.75;14.45;;;;;;;;;;6249055;28;20519;-63
2022/12/20 00:08:29;;;;;;;35.60;12.88;;;;;;;;;;6249395;28;20520;-63
2022/12/20 00:11:29;;;;;;;40.42;12.90;;;;;;;;;;6271053;28;20053;-63
2022/12/20 00:14:31;;;;;;;40.83;13.68;;;;;;;;;;6249633;28;20041;-61
2022/12/20 00:17:31;;;;;;;42.13;13.93;;;;;;;;;;6246960;28;20049;-62
2022/12/20 00:20:32;;;;;;;43.53;14.02;;;;;;;;;;6249265;28;20051;-63
2022/12/20 00:23:34;;;;;;;36.30;13.68;;;;;;;;;;6249632;28;20047;-63
2022/12/20 00:26:35;;;;;;;38.73;13.17;;;;;;;;;;6245599;28;20507;-62
2022/12/20 00:29:35;;;;;;;38.20;13.77;;;;;;;;;;6249362;28;20049;-62
2022/12/20 00:32:36;;;;;;;40.58;13.73;;;;;;;;;;6246963;28;20084;-63
2022/12/20 00:35:41;;;;;;;38.50;12.77;;;;;;;;;;6248260;28;20424;-62
2022/12/20 00:38:46;;;;;;;41.85;13.80;;;;;;;;;;6250035;28;20879;-62
2022/12/20 00:41:46;;;;;;;41.28;12.80;;;;;;;;;;6247476;28;20057;-62
2022/12/20 00:44:47;;;;;;;42.42;12.93;;;;;;;;;;6253373;28;20088;-63
2022/12/20 00:47:47;;;;;;;40.20;13.43;;;;;;;;;;6252426;28;20045;-67
2022/12/20 00:50:48;;;;;;;41.78;14.40;;;;;;;;;;6247978;28;20049;-63
2022/12/20 00:53:49;;;;;;;47.53;16.40;;;;;;;;;;6247140;28;20045;-61
2022/12/20 00:56:50;;;;;;;41.65;12.85;;;;;;;;;;6244948;28;20060;-62
2022/12/20 00:59:50;;;;;;;37.35;13.45;;;;;;;;;;6258046;28;20131;-62
2022/12/20 01:02:51;;;;;;;44.15;15.27;;;;;;;;;;6262241;28;20045;-62
2022/12/20 01:05:59;;;;;;;37.17;13.38;;;;;;;;;;6246215;28;20042;-62
2022/12/20 01:09:00;;;;;;;38.83;13.48;;;;;;;;;;6248738;28;20133;-62
2022/12/20 01:12:00;;;;;;;46.30;14.45;;;;;;;;;;6247593;28;20099;-62
2022/12/20 01:15:02;;;;;;;50.25;14.60;;;;;;;;;;6250236;28;20056;-61
2022/12/20 01:18:02;;;;;;;39.50;12.85;;;;;;;;;;6247784;28;20148;-62
2022/12/20 01:21:07;;;;;;;43.28;13.95;;;;;;;;;;6265031;28;20759;-62
2022/12/20 01:24:07;;;;;;;42.88;13.20;;;;;;;;;;6256980;28;20103;-62
2022/12/20 01:27:08;;;;;;;41.03;14.20;;;;;;;;;;6257379;28;20101;-61
2022/12/20 01:30:09;;;;;;;40.75;12.73;;;;;;;;;;6262790;28;20049;-62
2022/12/20 01:33:10;;;;;;;41.80;14.23;;;;;;;;;;6249874;28;20076;-62
2022/12/20 01:36:13;;;;;;;42.92;14.38;;;;;;;;;;6249336;28;20060;-63
2022/12/20 01:39:15;;;;;;;46.35;13.52;;;;;;;;;;6247759;28;20051;-61
2022/12/20 01:42:16;;;;;;;35.47;11.80;;;;;;;;;;6245500;28;20471;-62
2022/12/20 01:45:25;;;;;;;34.97;12.00;;;;;;;;;;6250090;28;20306;-62
2022/12/20 01:48:26;;;;;;;40.55;13.77;;;;;;;;;;6246045;28;20421;-71
2022/12/20 01:51:30;;;;;;;42.92;13.88;;;;;;;;;;6248549;28;20057;-61
2022/12/20 01:54:37;;;;;;;44.75;13.52;;;;;;;;;;6248066;28;20462;-67
2022/12/20 01:57:50;;;;;;;46.33;15.05;;;;;;;;;;6247410;28;20091;-63
2022/12/20 02:00:51;;;;;;;38.25;12.93;;;;;;;;;;6247806;28;20049;-62
2022/12/20 02:03:54;;;;;;;44.05;15.70;;;;;;;;;;6249723;28;20052;-62
2022/12/20 02:06:55;;;;;;;40.25;14.07;;;;;;;;;;6264955;28;20045;-62
2022/12/20 02:09:57;;;;;;;41.45;14.75;;;;;;;;;;6248705;28;20114;-62
2022/12/20 02:13:01;;;;;;;;;;;;;;;;;;6247672;28;20064;-62
2022/12/20 02:16:03;;;;;;;41.58;14.02;;;;;;;;;;6245994;28;19937;-62
2022/12/20 02:19:23;;;;;;;47.65;14.98;;;;;;;;;;6245296;28;20463;-72
2022/12/20 02:23:03;;;;;;;43.97;14.52;;;;;;;;;;6245848;28;20072;-62
2022/12/20 02:26:14;;;;;;;47.63;15.38;;;;;;;;;;6242027;28;20053;-62
2022/12/20 02:29:35;;;;;;;55.40;17.02;;;;;;;;;;6245879;28;20071;-62
2022/12/20 02:32:46;;;;;;;49.17;15.98;;;;;;;;;;6245976;28;20107;-62
2022/12/20 02:35:47;;;;;;;42.27;14.03;;;;;;;;;;6245525;28;20082;-62
2022/12/20 02:38:47;;;;;;;46.63;14.98;;;;;;;;;;6247892;28;20500;-62
2022/12/20 02:41:56;;;;;;;47.92;15.10;;;;;;;;;;6254714;28;20049;-62
2022/12/20 02:45:16;;;;;;;44.05;14.25;;;;;;;;;;6255553;28;20484;-62
2022/12/20 02:48:18;;;;;;;53.78;15.95;;;;;;;;;;6254114;28;20068;-62
2022/12/20 02:51:22;;;;;;;52.42;15.88;;;;;;;;;;6251418;28;20045;-62
2022/12/20 02:54:23;;;;;;;48.45;15.43;;;;;;;;;;6244928;28;20045;-62
2022/12/20 02:58:04;;;;;;;49.03;16.05;;;;;;;;;;6246005;28;20136;-62
2022/12/20 03:01:16;;;;;;;59.83;16.77;;;;;;;;;;6250115;28;20041;-63
2022/12/20 03:04:18;;;;;;;48.00;15.07;;;;;;;;;;6252584;28;20396;-62
2022/12/20 03:07:20;;;;;;;53.17;15.38;;;;;;;;;;6249802;28;20042;-62
2022/12/20 03:10:20;;;;;;;55.92;15.32;;;;;;;;;;6252138;28;20045;-62
2022/12/20 03:13:23;;;;;;;50.22;16.42;;;;;;;;;;6265767;28;20131;-62
2022/12/20 03:16:23;;;;;;;53.58;15.82;;;;;;;;;;6255853;28;20049;-62
2022/12/20 03:19:24;;;;;;;52.47;16.55;;;;;;;;;;6251225;28;20106;-62
2022/12/20 03:22:25;;;;;;;54.45;14.88;;;;;;;;;;6251821;28;20558;-62
2022/12/20 03:25:26;;;;;;;49.92;16.40;;;;;;;;;;6249409;28;20068;-62
2022/12/20 03:28:27;;;;;;;53.50;16.10;;;;;;;;;;6246365;28;20041;-62
2022/12/20 03:31:27;;;;;;;48.38;15.38;;;;;;;;;;6250281;28;20084;-62
2022/12/20 03:34:28;;;;;;;47.95;16.38;;;;;;;;;;6251316;28;20438;-66
2022/12/20 03:37:29;;;;;;;52.95;14.60;;;;;;;;;;6249468;28;20053;-62
2022/12/20 03:40:30;;;;;;;53.40;16.05;;;;;;;;;;6265242;28;20068;-62
2022/12/20 03:43:30;;;;;;;53.70;15.85;;;;;;;;;;6254250;28;20054;-63
2022/12/20 03:46:31;;;;;;;52.05;16.77;;;;;;;;;;6248728;28;20045;-62
2022/12/20 03:49:32;;;;;;;51.42;16.92;;;;;;;;;;6245830;28;20085;-62
2022/12/20 03:52:32;;;;;;;48.85;15.82;;;;;;;;;;6251736;28;20071;-63
2022/12/20 03:55:33;;;;;;;52.78;16.67;;;;;;;;;;6252483;28;20053;-67
2022/12/20 03:58:34;;;;;;;49.65;16.65;;;;;;;;;;6264695;28;20700;-62
2022/12/20 04:01:35;;;;;;;50.80;15.57;;;;;;;;;;6269501;28;20076;-62
2022/12/20 04:04:35;;;;;;;49.00;15.98;;;;;;;;;;6254783;28;20041;-72
2022/12/20 04:07:37;;;;;;;47.42;15.30;;;;;;;;;;6250731;28;20468;-61
2022/12/20 04:11:14;;;;;;;56.10;16.55;;;;;;;;;;6248621;28;20056;-61
2022/12/20 04:13:58;;;;;;;54.80;16.98;;;;;;;;;;6250933;28;20046;-61
2022/12/20 04:16:58;;;;;;;51.53;17.17;;;;;;;;;;6250434;28;20057;-63
2022/12/20 04:20:17;;;;;;;49.22;17.33;;;;;;;;;;6243680;28;20148;-62
2022/12/20 04:23:18;;;;;;;57.08;17.60;;;;;;;;;;6244550;28;20040;-62
2022/12/20 04:26:19;;;;;;;56.42;17.75;;;;;;;;;;6250680;28;20496;-62
2022/12/20 04:29:19;;;;;;;56.20;18.67;;;;;;;;;;6248467;28;20095;-62
2022/12/20 04:32:20;;;;;;;61.67;18.52;;;;;;;;;;6254548;28;20057;-62
2022/12/20 04:35:21;;;;;;;58.83;18.67;;;;;;;;;;6265993;28;20264;-63
2022/12/20 04:38:22;;;;;;;62.50;18.75;;;;;;;;;;6249372;28;20037;-62
2022/12/20 04:41:22;;;;;;;63.75;18.60;;;;;;;;;;6249854;28;20136;-62
2022/12/20 04:44:24;;;;;;;60.90;19.45;;;;;;;;;;6251481;28;20045;-62
2022/12/20 04:47:25;;;;;;;62.55;18.98;;;;;;;;;;6250391;28;20055;-62
2022/12/20 04:50:26;;;;;;;64.65;18.08;;;;;;;;;;6247440;28;20416;-73
2022/12/20 04:56:46;;;;;;;67.13;20.27;;;;;;;;;;6257975;28;20059;-63
2022/12/20 04:59:46;;;;;;;58.60;17.95;;;;;;;;;;6259409;28;20045;-63
2022/12/20 05:02:47;;;;;;;56.42;18.58;;;;;;;;;;6249416;28;20084;-61
2022/12/20 05:05:48;;;;;;;63.38;18.75;;;;;;;;;;6262693;28;20045;-62
2022/12/20 05:08:48;;;;;;;58.90;17.95;;;;;;;;;;6252356;28;20514;-63
2022/12/20 05:11:49;;;;;;;56.75;17.48;;;;;;;;;;6248908;28;20053;-62
2022/12/20 05:14:50;;;;;;;70.15;19.55;;;;;;;;;;6249255;28;20034;-69
2022/12/20 05:18:14;;;;;;;53.28;17.23;;;;;;;;;;6261372;28;20099;-63
2022/12/20 05:27:53;;;;;;;54.53;17.27;;;;;;;;;;6249007;28;20048;-61
2022/12/20 05:30:53;;;;;;;52.45;16.90;;;;;;;;;;6247489;28;20111;-63
2022/12/20 05:33:54;;;;;;;59.70;17.80;;;;;;;;;;6244580;28;20057;-63
2022/12/20 05:36:55;;;;;;;64.07;18.45;;;;;;;;;;6249670;28;20435;-62
2022/12/20 05:39:55;;;;;;;61.78;17.90;;;;;;;;;;6246652;28;20084;-62
2022/12/20 05:42:56;;;;;;;57.40;17.67;;;;;;;;;;6243966;28;20703;-62
2022/12/20 05:45:57;;;;;;;63.78;18.63;;;;;;;;;;6259845;28;20099;-62
2022/12/20 05:48:57;;;;;;;54.85;16.50;;;;;;;;;;6257842;28;20099;-62
2022/12/20 05:51:58;;;;;;;58.00;17.98;;;;;;;;;;6248245;28;20048;-62
2022/12/20 05:54:59;;;;;;;58.38;17.30;;;;;;;;;;6249766;28;20060;-62
2022/12/20 05:58:00;;;;;;;57.72;18.10;;;;;;;;;;6261041;28;20041;-62
2022/12/20 06:01:05;;;;;;;56.10;16.83;;;;;;;;;;6262826;28;20053;-63
2022/12/20 06:04:06;;;;;;;56.72;17.02;;;;;;;;;;6251807;28;20515;-62
2022/12/20 06:07:06;;;;;;;58.10;17.20;;;;;;;;;;6255266;28;20049;-63
2022/12/20 06:10:08;;;;;;;59.35;16.38;;;;;;;;;;6261387;28;20140;-61
2022/12/20 06:13:09;;;;;;;52.17;16.73;;;;;;;;;;6247479;28;20041;-62
2022/12/20 06:16:10;;;;;;;60.05;17.80;;;;;;;;;;6256151;28;20064;-61
2022/12/20 06:19:10;;;;;;;67.00;19.35;;;;;;;;;;6252652;28;20041;-62
2022/12/20 06:22:12;;;;;;;59.88;18.08;;;;;;;;;;6246394;28;20606;-62
2022/12/20 06:25:14;;;;;;;56.75;17.63;;;;;;;;;;6242705;28;20069;-66
2022/12/20 06:28:20;;;;;;;59.53;16.92;;;;;;;;;;6245475;28;20037;-67
2022/12/20 06:31:20;;;;;;;62.03;17.45;;;;;;;;;;6245741;28;20148;-61
2022/12/20 06:34:22;;;;;;;59.78;18.05;;;;;;;;;;6244380;28;20041;-61
2022/12/20 06:37:22;;;;;;;61.97;18.13;;;;;;;;;;6244740;28;20045;-62
2022/12/20 06:40:23;;;;;;;64.97;19.23;;;;;;;;;;6245168;28;20546;-61
2022/12/20 06:43:24;;;;;;;64.40;18.52;;;;;;;;;;6244619;28;20416;-70
2022/12/20 06:46:26;;;;;;;62.70;19.17;;;;;;;;;;6242811;28;20033;-61
2022/12/20 06:49:26;;;;;;;60.30;19.33;;;;;;;;;;6247561;28;20120;-61
2022/12/20 06:52:27;;;;;;;57.42;18.45;;;;;;;;;;6244915;28;20310;-61
2022/12/20 06:55:27;;;;;;;67.80;19.73;;;;;;;;;;6243397;28;20673;-61
2022/12/20 06:58:28;;;;;;;63.67;18.98;;;;;;;;;;6244869;28;20041;-61
2022/12/20 07:01:29;;;;;;;62.17;18.63;;;;;;;;;;6247083;28;20052;-61
2022/12/20 07:04:30;;;;;;;64.95;18.83;;;;;;;;;;6244843;28;20055;-61
2022/12/20 07:07:30;;;;;;;64.50;18.13;;;;;;;;;;6244336;28;20175;-61
2022/12/20 07:10:36;;;;;;;63.35;18.75;;;;;;;;;;6243938;28;20119;-62
2022/12/20 07:13:36;;;;;;;65.20;18.80;;;;;;;;;;6242768;28;20045;-61
2022/12/20 07:16:37;;;;;;;65.78;19.48;;;;;;;;;;6263498;28;20068;-61
2022/12/20 07:19:37;;;;;;;64.07;20.00;;;;;;;;;;6251149;28;20038;-61
2022/12/20 07:22:38;;;;;;;71.53;19.05;;;;;;;;;;6246989;28;20049;-62
2022/12/20 07:26:00;;;;;;;69.63;18.35;;;;;;;;;;6241964;28;20148;-61
2022/12/20 07:29:01;;;;;;;63.83;19.95;;;;;;;;;;6249453;28;20060;-61
2022/12/20 07:32:02;;;;;;;65.20;19.67;;;;;;;;;;6248246;28;20057;-62
2022/12/20 07:35:04;;;;;;;64.30;19.13;;;;;;;;;;6248776;28;20049;-61
2022/12/20 07:38:05;;;;;;;60.72;18.88;;;;;;;;;;6260682;28;20146;-61
2022/12/20 07:41:10;;;;;;;69.07;22.40;;;;;;;;;;6252159;28;20049;-61
2022/12/20 07:44:11;;;;;;;62.03;19.02;;;;;;;;;;6249396;28;20702;-62
2022/12/20 07:47:11;;;;;;;66.68;19.08;;;;;;;;;;6255564;28;20147;-61
2022/12/20 07:50:12;;;;;;;62.70;18.80;;;;;;;;;;6258214;28;20710;-62
2022/12/20 07:53:13;;;;;;;64.32;18.15;;;;;;;;;;6249756;28;20042;-62
2022/12/20 07:56:15;;;;;;;58.97;18.85;;;;;;;;;;6248437;28;20079;-62
2022/12/20 07:59:19;;;;;;;65.85;18.48;;;;;;;;;;6249780;28;20488;-61
2022/12/20 08:02:26;;;;;;;67.15;19.77;;;;;;;;;;6249716;28;20048;-62
2022/12/20 08:05:27;;;;;;;63.50;19.50;;;;;;;;;;6247692;28;20048;-61
2022/12/20 08:08:30;;;;;;;64.43;19.08;;;;;;;;;;6245878;28;20086;-61
2022/12/20 08:11:35;;;;;;;70.57;20.30;;;;;;;;;;6239479;28;20048;-63
2022/12/20 08:14:36;;;;;;;63.17;19.67;;;;;;;;;;6249858;28;20155;-61
2022/12/20 08:17:37;;;;;;;62.05;19.45;;;;;;;;;;6247132;28;20965;-61
2022/12/20 08:20:37;;;;;;;73.75;23.27;;;;;;;;;;6247245;28;20056;-61
2022/12/20 08:23:38;;;;;;;69.47;20.45;;;;;;;;;;6248816;28;20447;-61
2022/12/20 08:26:40;;;;;;;66.25;20.90;;;;;;;;;;6246855;28;20057;-61
2022/12/20 08:29:41;;;;;;;;;;;;;;;;;;6250703;28;20049;-61
2022/12/20 08:32:42;;;;;;;65.95;20.42;;;;;;;;;;6250180;28;19932;-61
2022/12/20 08:35:42;;;;;;;59.40;18.55;;;;;;;;;;6248295;28;20052;-61
2022/12/20 08:38:43;;;;;;;69.18;21.02;;;;;;;;;;6246673;28;20105;-61
2022/12/20 08:41:43;;;;;;;69.88;20.30;;;;;;;;;;6250525;28;20057;-61
2022/12/20 08:44:45;;;;;;;70.72;21.02;;;;;;;;;;6249713;28;20052;-61
2022/12/20 08:47:46;;;;;;;60.67;20.13;;;;;;;;;;6247510;28;20041;-61
2022/12/20 08:50:53;;;;;;;68.05;20.40;;;;;;;;;;6246935;28;20108;-69
2022/12/20 08:53:54;;;;;;;66.78;19.65;;;;;;;;;;6247817;28;20156;-61
2022/12/20 08:56:54;;;;;;;62.30;19.63;;;;;;;;;;6248276;28;20049;-61
2022/12/20 08:59:56;;;;;;;72.30;20.33;;;;;;;;;;6248656;28;20622;-61
2022/12/20 09:02:56;;;;;;;71.28;21.15;;;;;;;;;;6249405;28;20057;-62
2022/12/20 09:05:59;;;;;;;62.77;20.30;;;;;;;;;;6246474;28;20048;-61
2022/12/20 09:08:59;;;;;;;67.22;19.80;;;;;;;;;;6248434;28;20041;-71
2022/12/20 09:12:00;;;;;;;65.63;20.02;;;;;;;;;;6248176;28;20048;-61
2022/12/20 09:15:01;;;;;;;63.90;20.55;;;;;;;;;;6254498;28;20045;-62
2022/12/20 09:18:02;;;;;;;67.88;21.02;;;;;;;;;;6246869;28;20568;-64
2022/12/20 09:21:04;;;;;;;66.68;19.08;;;;;;;;;;6248675;28;20752;-61
2022/12/20 09:24:06;;;;;;;62.22;21.48;;;;;;;;;;6247338;28;20373;-62
2022/12/20 09:27:06;;;;;;;67.88;21.45;;;;;;;;;;6246316;28;20431;-62
2022/12/20 09:30:07;;;;;;;72.53;20.63;;;;;;;;;;6246098;28;20049;-61
2022/12/20 09:33:08;;;;;;;62.13;20.30;;;;;;;;;;6247232;28;20045;-61
2022/12/20 09:36:18;;;;;;;61.13;19.65;;;;;;;;;;6244336;28;20413;-62
2022/12/20 09:39:18;;;;;;;73.15;22.25;;;;;;;;;;6248726;28;20075;-62
2022/12/20 09:42:23;;;;;;;67.68;19.58;;;;;;;;;;6247952;28;20487;-62
2022/12/20 09:45:27;;;;;;;67.45;19.95;;;;;;;;;;6257605;28;20483;-61
2022/12/20 09:48:32;;;;;;;64.13;18.92;;;;;;;;;;6255127;28;20526;-62
2022/12/20 09:51:59;;;;;;;67.75;20.23;;;;;;;;;;6246903;28;20049;-61
2022/12/20 09:55:05;;;;;;;63.80;19.08;;;;;;;;;;6247758;28;20041;-61
2022/12/20 09:58:16;;;;;;;57.45;18.77;;;;;;;;;;6246918;28;20049;-61
2022/12/20 10:01:20;;;;;;;67.40;19.90;;;;;;;;;;6246729;28;20472;-61
2022/12/20 10:04:28;;;;;;;75.25;20.20;;;;;;;;;;6248744;28;20053;-61
2022/12/20 10:07:54;;;;;;;70.57;20.15;;;;;;;;;;6249024;28;20052;-62
2022/12/20 10:11:01;;;;;;;70.00;19.73;;;;;;;;;;6241208;28;20088;-61
2022/12/20 10:14:37;;;;;;;58.53;18.80;;;;;;;;;;6246126;28;20440;-61
2022/12/20 10:17:55;;;;;;;65.30;20.55;;;;;;;;;;6246236;28;20053;-61
2022/12/20 10:21:14;;;;;;;51.88;18.38;;;;;;;;;;6244536;28;20053;-61
2022/12/20 10:24:22;;;;;;;58.17;19.00;;;;;;;;;;6244693;28;20068;-61
2022/12/20 10:27:23;;;;;;;60.67;19.90;;;;;;;;;;6245222;28;20152;-62
2022/12/20 10:30:27;;;;;;;54.97;18.52;;;;;;;;;;6248442;28;20057;-61
2022/12/20 10:33:30;;;;;;;61.97;18.98;;;;;;;;;;6244659;28;20414;-62
2022/12/20 10:36:34;;;;;;;59.53;18.52;;;;;;;;;;6245764;28;20045;-63
2022/12/20 10:39:41;;;;;;;58.53;18.83;;;;;;;;;;6249325;28;20041;-59
2022/12/20 10:42:42;;;;;;;61.40;19.63;;;;;;;;;;6267049;28;20136;-63
2022/12/20 10:45:53;;;;;;;65.53;21.27;;;;;;;;;;6250894;28;20049;-68
2022/12/20 10:48:53;;;;;;;62.97;20.10;;;;;;;;;;6246351;28;20748;-61
2022/12/20 10:52:17;;;;;;;71.75;23.65;;;;;;;;;;6246500;28;20071;-61
2022/12/20 10:55:35;;;;;;;74.72;25.77;;;;;;;;;;6245935;28;21090;-61
2022/12/20 10:58:36;;;;;;;73.53;28.15;;;;;;;;;;6245764;28;20098;-62
2022/12/20 11:01:43;;;;;;;99.10;37.28;;;;;;;;;;6248636;28;20045;-65
2022/12/20 11:05:16;;;;;;;73.13;25.23;;;;;;;;;;6249868;28;20480;-67
2022/12/20 11:08:17;;;;;;;65.90;20.15;;;;;;;;;;6243652;28;20049;-64
2022/12/20 11:11:21;;;;;;;67.70;22.27;;;;;;;;;;6249460;28;20053;-61
2022/12/20 11:14:22;;;;;;;58.70;19.35;;;;;;;;;;6250475;28;20061;-61
2022/12/20 11:17:34;;;;;;;65.25;20.13;;;;;;;;;;6250743;28;20116;-66
2022/12/20 11:20:56;;;;;;;54.20;18.42;;;;;;;;;;6248891;28;20472;-60
2022/12/20 11:24:13;;;;;;;58.20;18.77;;;;;;;;;;6251953;28;20069;-61
2022/12/20 11:27:32;;;;;;;66.45;23.13;;;;;;;;;;6253296;28;20045;-61
2022/12/20 11:31:06;;;;;;;97.28;35.50;;;;;;;;;;6251288;28;20136;-61
2022/12/20 11:34:23;;;;;;;58.85;21.45;;;;;;;;;;6251339;28;20057;-68
2022/12/20 11:37:26;;;;;;;66.30;23.00;;;;;;;;;;6250706;28;20145;-61
2022/12/20 11:40:31;;;;;;;72.00;21.48;;;;;;;;;;6249763;28;20060;-61
2022/12/20 11:43:34;;;;;;;63.05;20.65;;;;;;;;;;6254312;28;20447;-61
2022/12/20 11:46:48;;;;;;;62.03;19.50;;;;;;;;;;6257691;28;20098;-61
2022/12/20 11:50:07;;;;;;;62.53;20.40;;;;;;;;;;6262147;28;20132;-61
2022/12/20 11:53:24;;;;;;;61.63;20.75;;;;;;;;;;6249804;28;20128;-61
2022/12/20 11:56:37;;;;;;;61.72;20.00;;;;;;;;;;6248378;28;20390;-61
2022/12/20 11:59:54;;;;;;;70.45;21.58;;;;;;;;;;6253444;28;20060;-61
2022/12/20 12:03:09;;;;;;;64.15;21.05;;;;;;;;;;6247464;28;20147;-62
2022/12/20 12:06:30;;;;;;;65.13;21.30;;;;;;;;;;6250120;28;20060;-63
2022/12/20 12:10:05;;;;;;;89.47;31.02;;;;;;;;;;6252613;28;20196;-63
2022/12/20 12:13:17;;;;;;;76.28;26.95;;;;;;;;;;6258540;28;20077;-62
2022/12/20 12:16:30;;;;;;;76.97;23.90;;;;;;;;;;6251486;28;20077;-62
2022/12/20 12:19:33;;;;;;;74.63;26.33;;;;;;;;;;6248896;28;20049;-62
2022/12/20 12:22:37;;;;;;;82.78;26.48;;;;;;;;;;6251018;28;20132;-60
2022/12/20 12:25:38;;;;;;;65.10;21.55;;;;;;;;;;6246021;28;20076;-60
2022/12/20 12:28:39;;;;;;;72.38;24.48;;;;;;;;;;6244876;28;20435;-68
2022/12/20 12:32:01;;;;;;;66.47;23.45;;;;;;;;;;6254576;28;20052;-64
2022/12/20 12:35:42;;;;;;;75.90;24.48;;;;;;;;;;6257345;28;20063;-61
2022/12/20 12:38:54;;;;;;;68.93;24.45;;;;;;;;;;6252102;28;20057;-62
2022/12/20 12:42:27;;;;;;;65.55;21.15;;;;;;;;;;6251802;28;20095;-64
2022/12/20 12:45:45;;;;;;;70.23;23.90;;;;;;;;;;6253808;28;20497;-61
2022/12/20 12:48:54;;;;;;;67.18;22.42;;;;;;;;;;6252444;28;20045;-62
2022/12/20 12:51:58;;;;;;;70.20;22.98;;;;;;;;;;6255658;28;20127;-61
2022/12/20 12:54:59;;;;;;;64.20;22.17;;;;;;;;;;6253996;28;20132;-61
2022/12/20 12:58:32;;;;;;;70.80;21.73;;;;;;;;;;6257135;28;20436;-61
2022/12/20 13:02:16;;;;;;;66.10;21.50;;;;;;;;;;6256431;28;20159;-61
2022/12/20 13:05:42;;;;;;;69.15;21.75;;;;;;;;;;6256674;28;20053;-62
2022/12/20 13:09:06;;;;;;;62.75;20.40;;;;;;;;;;6247296;28;20484;-61
2022/12/20 13:12:37;;;;;;;66.57;20.63;;;;;;;;;;6254067;28;20135;-61
2022/12/20 13:15:41;;;;;;;64.80;21.13;;;;;;;;;;6256396;28;20457;-60
2022/12/20 13:18:59;;;;;;;76.75;24.90;;;;;;;;;;6248465;28;20045;-61
2022/12/20 13:22:11;;;;;;;115.28;41.63;;;;;;;;;;6247141;28;20049;-61
2022/12/20 13:25:29;;;;;;;;;;;;;;;;;;6244047;28;20594;-61
2022/12/20 13:28:33;;;;;;;66.82;21.60;;;;;;;;;;6252485;28;21542;-60
2022/12/20 13:31:34;;;;;;;68.30;23.67;;;;;;;;;;6248756;28;20057;-61
2022/12/20 13:34:53;;;;;;;68.53;23.10;;;;;;;;;;6247882;28;20083;-61
2022/12/20 13:38:11;;;;;;;70.32;20.77;;;;;;;;;;6250594;28;20057;-62
2022/12/20 13:41:36;;;;;;;64.10;20.67;;;;;;;;;;6256767;28;20134;-61
2022/12/20 13:44:43;;;;;;;63.55;20.35;;;;;;;;;;6250725;28;20056;-61
2022/12/20 13:47:51;;;;;;;64.57;21.05;;;;;;;;;;6252228;28;20080;-62
2022/12/20 13:50:54;;;;;;;61.40;19.52;;;;;;;;;;6255059;28;20111;-62
2022/12/20 13:53:56;;;;;;;76.53;23.40;;;;;;;;;;6256847;28;20106;-62
2022/12/20 13:56:58;;;;;;;73.38;22.45;;;;;;;;;;6248094;28;20140;-61
2022/12/20 14:00:02;;;;;;;78.05;25.95;;;;;;;;;;6251442;28;20632;-61
2022/12/20 14:03:03;;;;;;;77.95;27.38;;;;;;;;;;6246432;28;20080;-62
2022/12/20 14:06:09;;;;;;;93.53;30.90;;;;;;;;;;6245787;28;20056;-63
2022/12/20 14:09:29;;;;;;;72.68;25.38;;;;;;;;;;6246609;28;20049;-61
2022/12/20 14:12:30;;;;;;;66.25;21.23;;;;;;;;;;6244424;28;20188;-62
2022/12/20 14:15:34;;;;;;;72.35;22.35;;;;;;;;;;6246793;28;20778;-62
2022/12/20 14:18:35;;;;;;;70.28;21.98;;;;;;;;;;6249069;28;20139;-61
2022/12/20 14:21:41;;;;;;;74.00;23.42;;;;;;;;;;6246198;28;20060;-61
2022/12/20 14:24:43;;;;;;;73.22;22.50;;;;;;;;;;6244843;28;20147;-61
2022/12/20 14:27:44;;;;;;;73.47;23.73;;;;;;;;;;6245115;28;20087;-62
2022/12/20 14:30:46;;;;;;;70.28;22.52;;;;;;;;;;6251511;28;20140;-61
2022/12/20 14:33:47;;;;;;;69.63;22.25;;;;;;;;;;6251591;28;20037;-61
2022/12/20 14:36:49;;;;;;;71.10;22.13;;;;;;;;;;6243050;28;20107;-61
2022/12/20 14:40:02;;;;;;;72.15;22.88;;;;;;;;;;6243165;28;20083;-62
2022/12/20 14:43:14;;;;;;;70.95;22.30;;;;;;;;;;6245117;28;20080;-61
2022/12/20 14:46:18;;;;;;;65.32;21.48;;;;;;;;;;6242556;28;20067;-62
2022/12/20 14:49:37;;;;;;;68.82;20.83;;;;;;;;;;6247396;28;20518;-61
2022/12/20 14:52:40;;;;;;;70.32;22.30;;;;;;;;;;6247982;28;20053;-61
2022/12/20 14:55:45;;;;;;;69.93;22.35;;;;;;;;;;6245358;28;20552;-62
2022/12/20 14:59:00;;;;;;;60.42;20.70;;;;;;;;;;6252673;28;20052;-62
2022/12/20 15:02:39;;;;;;;66.65;22.45;;;;;;;;;;6253307;28;20057;-61
2022/12/20 15:05:57;;;;;;;67.15;21.85;;;;;;;;;;6253804;28;20055;-61
2022/12/20 15:08:58;;;;;;;88.90;28.17;;;;;;;;;;6254131;28;20041;-62
2022/12/20 15:12:01;;;;;;;127.10;43.17;;;;;;;;;;6254622;28;20136;-62
2022/12/20 15:15:03;;;;;;;82.70;26.33;;;;;;;;;;6253767;28;20057;-61
2022/12/20 15:18:15;;;;;;;82.07;28.08;;;;;;;;;;6253204;28;20048;-61
2022/12/20 15:21:21;;;;;;;81.03;30.48;;;;;;;;;;6255767;28;20049;-61
2022/12/20 15:24:24;;;;;;;72.10;24.25;;;;;;;;;;6255546;28;20916;-61
2022/12/20 15:27:25;;;;;;;71.28;22.70;;;;;;;;;;6252320;28;20072;-60
2022/12/20 15:30:25;;;;;;;68.22;21.23;;;;;;;;;;6249031;28;20480;-61
2022/12/20 15:33:29;;;;;;;70.90;22.77;;;;;;;;;;6244699;28;20548;-62
2022/12/20 15:36:30;;;;;;;67.68;22.42;;;;;;;;;;6244955;28;20095;-61
2022/12/20 15:39:32;;;;;;;66.15;21.27;;;;;;;;;;6244385;28;20115;-68
2022/12/20 15:42:33;;;;;;;64.65;21.23;;;;;;;;;;6246262;28;20045;-67
2022/12/20 15:45:33;;;;;;;66.05;20.33;;;;;;;;;;6241926;28;20056;-61
2022/12/20 15:48:34;;;;;;;76.65;23.92;;;;;;;;;;6246928;28;20099;-62
2022/12/20 15:51:39;;;;;;;66.47;20.73;;;;;;;;;;6255762;28;20142;-61
2022/12/20 15:54:40;;;;;;;67.53;21.88;;;;;;;;;;6257012;28;20136;-62
2022/12/20 15:57:41;;;;;;;72.68;24.20;;;;;;;;;;6257595;28;20423;-68
2022/12/20 16:00:42;;;;;;;67.57;22.15;;;;;;;;;;6259200;28;20053;-64
2022/12/20 16:03:43;;;;;;;78.53;24.40;;;;;;;;;;6260407;28;20110;-60
2022/12/20 16:06:46;;;;;;;72.57;24.02;;;;;;;;;;6254696;28;20430;-62
2022/12/20 16:09:46;;;;;;;78.25;23.40;;;;;;;;;;6256290;28;20051;-61
2022/12/20 16:12:47;;;;;;;74.38;22.75;;;;;;;;;;6259828;28;20049;-61
2022/12/20 16:15:48;;;;;;;75.13;22.85;;;;;;;;;;6257679;28;20083;-61
2022/12/20 16:18:52;;;;;;;75.50;26.52;;;;;;;;;;6259211;28;20045;-60
2022/12/20 16:21:53;;;;;;;74.95;23.75;;;;;;;;;;6259861;28;20053;-60
2022/12/20 16:24:53;;;;;;;74.20;23.92;;;;;;;;;;6256475;28;20053;-61
2022/12/20 16:27:54;;;;;;;77.38;23.48;;;;;;;;;;6256892;28;20060;-62
2022/12/20 16:30:55;;;;;;;69.70;22.60;;;;;;;;;;6258131;28;20483;-61
2022/12/20 16:33:57;;;;;;;76.32;24.40;;;;;;;;;;6259731;28;20068;-62
2022/12/20 16:36:57;;;;;;;79.30;25.45;;;;;;;;;;6257208;28;20068;-61
2022/12/20 16:39:58;;;;;;;80.00;24.73;;;;;;;;;;6259029;28;20132;-61
2022/12/20 16:42:59;;;;;;;85.80;28.23;;;;;;;;;;6260119;28;20488;-59
2022/12/20 16:46:00;;;;;;;86.50;26.67;;;;;;;;;;6256909;28;20621;-66
2022/12/20 16:49:02;;;;;;;70.75;23.70;;;;;;;;;;6257339;28;20056;-64
2022/12/20 16:52:05;;;;;;;77.18;24.35;;;;;;;;;;6250869;28;20608;-64
2022/12/20 16:55:11;;;;;;;82.38;25.10;;;;;;;;;;6246453;28;20044;-66
2022/12/20 16:58:11;;;;;;;88.38;28.25;;;;;;;;;;6255431;28;20732;-64
2022/12/20 17:01:23;;;;;;;86.18;28.10;;;;;;;;;;6256712;28;20059;-70
2022/12/20 17:04:25;;;;;;;85.70;27.48;;;;;;;;;;6259565;28;20106;-68
2022/12/20 17:07:26;;;;;;;95.07;31.75;;;;;;;;;;6256534;28;20060;-67
2022/12/20 17:10:27;;;;;;;87.32;29.40;;;;;;;;;;6258462;28;20049;-67
2022/12/20 17:13:28;;;;;;;85.38;28.05;;;;;;;;;;6259627;28;20036;-64
2022/12/20 17:16:29;;;;;;;87.28;28.90;;;;;;;;;;6255951;28;20052;-64
2022/12/20 17:19:30;;;;;;;87.88;28.08;;;;;;;;;;6257580;28;20110;-65
2022/12/20 17:22:31;;;;;;;84.03;26.47;;;;;;;;;;6257629;28;20102;-58
2022/12/20 17:25:34;;;;;;;81.38;26.27;;;;;;;;;;6255645;28;20768;-54
2022/12/20 17:28:36;;;;;;;84.82;26.13;;;;;;;;;;6254921;28;20462;-56
2022/12/20 17:31:39;;;;;;;112.70;38.53;;;;;;;;;;6255783;28;20610;-58
2022/12/20 17:34:40;;;;;;;80.22;30.27;;;;;;;;;;6255867;28;20614;-62
2022/12/20 17:37:40;;;;;;;87.10;29.25;;;;;;;;;;6254480;28;20049;-63
2022/12/20 17:40:41;;;;;;;83.75;26.77;;;;;;;;;;6253177;28;20060;-54
2022/12/20 17:43:41;;;;;;;82.65;28.80;;;;;;;;;;6253028;28;20476;-53
2022/12/20 17:46:42;;;;;;;75.75;26.67;;;;;;;;;;6250233;28;20467;-56
2022/12/20 17:49:42;;;;;;;87.57;28.75;;;;;;;;;;6252915;28;20053;-58
2022/12/20 17:52:46;;;;;;;91.93;31.95;;;;;;;;;;6257562;28;20123;-58
2022/12/20 17:55:46;;;;;;;98.82;32.45;;;;;;;;;;6253643;28;20045;-55
2022/12/20 17:58:47;;;;;;;102.07;31.52;;;;;;;;;;6257439;28;20059;-56
2022/12/20 18:01:48;;;;;;;95.35;32.25;;;;;;;;;;6257291;28;20090;-53
2022/12/20 18:04:49;;;;;;;105.72;31.45;;;;;;;;;;6256419;28;20068;-52
2022/12/20 18:07:54;;;;;;;93.47;31.30;;;;;;;;;;6256787;28;20069;-52
2022/12/20 18:10:57;;;;;;;96.30;30.45;;;;;;;;;;6252882;28;20504;-54